Terminal Aerodrome Forecast
Issued by NWS Memphis, TN

Home | Current Version | Previous Version | Text Only | Print | Product List | Glossary On
Versions: 1 2 3 4 5 6 7 8 9 10 11 12 13 14 15 16 17
000
FTUS44 KMEG 272300
TAFMKL
TAF
KMKL 272327Z 2800/2824 00000KT P6SM FEW050 FEW250
     FM280700 00000KT 4SM BR SKC
      TEMPO 2809/2812 1SM BR
     FM281400 18005KT P6SM SCT050 SCT250=

USA.gov is the U.S. government's official web portal to all federal, state and local government web resources and services.